Capitol Logistics 264




KCLT
Charlotte/Douglas International Airport
Charlotte, North Carolina
KMIA
Miami International Airport
Miami, Florida

Route Details

Aircraft Information
Group: North America Fleet
Types: B738,B752,B762,B763
Route Data
Demand: V
Distance: 567nm
Duration: 1h 56m
Recm'd Route: ICONS4 NOOKS WURFL Q83 JEVED Q97 KENLL OMN HILEY7
Origin Wx: KCLT 270552Z 19009KT 8SM BKN017 BKN026 OVC040 22/21 A2997 RMK RAB0454E28B48 SLP140 P0005 60020 T02220206 10261 58019 $
Dest. Wx: KMIA 270553Z 11011KT 10SM FEW019 SCT050 SCT080 26/23 A3004 RMK AO2 SLP172 T02610228 10272 20261 58008 $
Notes:

Financial History
Total Freight: 652,318lbs
Average Load: 81,540lbs/flt
Fuel Used: 131,220lbs
Avg. Fuel Used: 16,403lbs/flt
Fuel Expense: $106,175
Avg. Fuel Expense: $13,272
Avg. Fuel Cost: $0.77/lbs
Total Gross Income: $936,193
Pilot Pay: $1,862
Total Expenses: $109,582
Total Revenue: $717,367
Average Revenue: $117,024.15